sensor_id;sensor_type;location;lat;lon;timestamp;P1;durP1;ratioP1;P2;durP2;ratioP2
73113;SDS011;61301;51.956;5.876;2024-02-28T00:01:49;32.55;;;20.20;;
73113;SDS011;61301;51.956;5.876;2024-02-28T00:04:16;33.72;;;21.60;;
73113;SDS011;61301;51.956;5.876;2024-02-28T00:06:43;34.47;;;21.33;;
73113;SDS011;61301;51.956;5.876;2024-02-28T00:09:12;30.92;;;19.38;;
73113;SDS011;61301;51.956;5.876;2024-02-28T00:11:44;36.50;;;20.45;;
73113;SDS011;61301;51.956;5.876;2024-02-28T00:14:11;34.88;;;21.40;;
73113;SDS011;61301;51.956;5.876;2024-02-28T00:16:43;29.38;;;17.92;;
73113;SDS011;61301;51.956;5.876;2024-02-28T00:19:11;30.77;;;18.08;;
73113;SDS011;61301;51.956;5.876;2024-02-28T00:21:38;26.08;;;16.55;;
73113;SDS011;61301;51.956;5.876;2024-02-28T00:24:08;25.17;;;15.68;;
73113;SDS011;61301;51.956;5.876;2024-02-28T00:26:34;21.88;;;14.07;;
73113;SDS011;61301;51.956;5.876;2024-02-28T00:29:00;21.50;;;13.40;;
73113;SDS011;61301;51.956;5.876;2024-02-28T00:31:26;24.13;;;14.95;;
73113;SDS011;61301;51.956;5.876;2024-02-28T00:33:52;20.02;;;13.15;;
73113;SDS011;61301;51.956;5.876;2024-02-28T00:36:18;18.00;;;11.85;;
73113;SDS011;61301;51.956;5.876;2024-02-28T00:38:44;16.45;;;10.82;;
73113;SDS011;61301;51.956;5.876;2024-02-28T00:41:10;23.50;;;15.20;;
73113;SDS011;61301;51.956;5.876;2024-02-28T00:43:39;24.40;;;16.13;;
73113;SDS011;61301;51.956;5.876;2024-02-28T00:46:05;22.23;;;14.70;;
73113;SDS011;61301;51.956;5.876;2024-02-28T00:48:37;23.13;;;15.25;;
73113;SDS011;61301;51.956;5.876;2024-02-28T00:51:03;22.20;;;14.25;;
73113;SDS011;61301;51.956;5.876;2024-02-28T00:53:30;22.42;;;14.20;;
73113;SDS011;61301;51.956;5.876;2024-02-28T00:55:56;19.48;;;12.60;;
73113;SDS011;61301;51.956;5.876;2024-02-28T00:58:22;16.65;;;11.25;;
73113;SDS011;61301;51.956;5.876;2024-02-28T01:00:48;14.60;;;9.30;;
73113;SDS011;61301;51.956;5.876;2024-02-28T01:03:14;14.85;;;9.80;;
73113;SDS011;61301;51.956;5.876;2024-02-28T01:05:41;20.77;;;13.23;;
73113;SDS011;61301;51.956;5.876;2024-02-28T01:08:07;22.27;;;14.90;;
73113;SDS011;61301;51.956;5.876;2024-02-28T01:10:33;30.13;;;18.65;;
73113;SDS011;61301;51.956;5.876;2024-02-28T01:12:59;24.90;;;15.75;;
73113;SDS011;61301;51.956;5.876;2024-02-28T01:15:26;27.67;;;17.02;;
73113;SDS011;61301;51.956;5.876;2024-02-28T01:17:52;29.65;;;19.55;;
73113;SDS011;61301;51.956;5.876;2024-02-28T01:20:18;30.17;;;19.98;;
73113;SDS011;61301;51.956;5.876;2024-02-28T01:22:43;32.00;;;20.50;;
73113;SDS011;61301;51.956;5.876;2024-02-28T01:25:10;33.63;;;22.02;;
73113;SDS011;61301;51.956;5.876;2024-02-28T01:27:42;29.48;;;18.30;;
73113;SDS011;61301;51.956;5.876;2024-02-28T01:30:08;29.70;;;18.48;;
73113;SDS011;61301;51.956;5.876;2024-02-28T01:32:35;28.92;;;18.33;;
73113;SDS011;61301;51.956;5.876;2024-02-28T01:35:02;27.65;;;18.20;;
73113;SDS011;61301;51.956;5.876;2024-02-28T01:37:29;28.67;;;17.23;;
73113;SDS011;61301;51.956;5.876;2024-02-28T01:39:55;24.90;;;15.02;;
73113;SDS011;61301;51.956;5.876;2024-02-28T01:42:21;19.63;;;13.48;;
73113;SDS011;61301;51.956;5.876;2024-02-28T01:44:48;20.80;;;14.40;;
73113;SDS011;61301;51.956;5.876;2024-02-28T01:47:14;37.13;;;20.65;;
73113;SDS011;61301;51.956;5.876;2024-02-28T01:49:41;32.97;;;19.88;;
73113;SDS011;61301;51.956;5.876;2024-02-28T01:52:08;29.13;;;18.25;;
73113;SDS011;61301;51.956;5.876;2024-02-28T01:54:35;35.22;;;19.65;;
73113;SDS011;61301;51.956;5.876;2024-02-28T01:57:01;46.92;;;21.00;;
73113;SDS011;61301;51.956;5.876;2024-02-28T01:59:28;32.97;;;18.95;;
73113;SDS011;61301;51.956;5.876;2024-02-28T02:01:55;27.77;;;19.23;;
73113;SDS011;61301;51.956;5.876;2024-02-28T02:04:21;30.52;;;19.60;;
73113;SDS011;61301;51.956;5.876;2024-02-28T02:06:47;35.00;;;19.05;;
73113;SDS011;61301;51.956;5.876;2024-02-28T02:09:17;34.13;;;20.02;;
73113;SDS011;61301;51.956;5.876;2024-02-28T02:11:43;30.35;;;17.23;;
73113;SDS011;61301;51.956;5.876;2024-02-28T02:14:10;44.33;;;17.73;;
73113;SDS011;61301;51.956;5.876;2024-02-28T02:16:36;34.80;;;19.05;;
73113;SDS011;61301;51.956;5.876;2024-02-28T02:19:03;20.17;;;13.25;;
73113;SDS011;61301;51.956;5.876;2024-02-28T02:21:34;21.67;;;15.05;;
73113;SDS011;61301;51.956;5.876;2024-02-28T02:24:03;24.52;;;17.02;;
73113;SDS011;61301;51.956;5.876;2024-02-28T02:26:29;25.65;;;16.08;;
73113;SDS011;61301;51.956;5.876;2024-02-28T02:28:55;25.42;;;16.70;;
73113;SDS011;61301;51.956;5.876;2024-02-28T02:31:21;22.27;;;15.48;;
73113;SDS011;61301;51.956;5.876;2024-02-28T02:33:47;25.85;;;18.35;;
73113;SDS011;61301;51.956;5.876;2024-02-28T02:36:13;24.70;;;16.45;;
73113;SDS011;61301;51.956;5.876;2024-02-28T02:38:39;21.05;;;14.82;;
73113;SDS011;61301;51.956;5.876;2024-02-28T02:41:05;37.80;;;19.08;;
73113;SDS011;61301;51.956;5.876;2024-02-28T02:43:31;22.30;;;15.20;;
73113;SDS011;61301;51.956;5.876;2024-02-28T02:45:57;23.65;;;15.40;;
73113;SDS011;61301;51.956;5.876;2024-02-28T02:48:23;27.23;;;17.95;;
73113;SDS011;61301;51.956;5.876;2024-02-28T02:50:49;34.70;;;18.02;;
73113;SDS011;61301;51.956;5.876;2024-02-28T02:53:15;21.95;;;15.45;;
73113;SDS011;61301;51.956;5.876;2024-02-28T02:55:41;24.17;;;15.68;;
73113;SDS011;61301;51.956;5.876;2024-02-28T02:58:10;29.75;;;19.05;;
73113;SDS011;61301;51.956;5.876;2024-02-28T03:00:36;17.42;;;13.02;;
73113;SDS011;61301;51.956;5.876;2024-02-28T03:03:05;17.50;;;11.80;;
73113;SDS011;61301;51.956;5.876;2024-02-28T03:05:32;13.57;;;9.10;;
73113;SDS011;61301;51.956;5.876;2024-02-28T03:07:58;17.83;;;12.20;;
73113;SDS011;61301;51.956;5.876;2024-02-28T03:10:24;15.25;;;10.70;;
73113;SDS011;61301;51.956;5.876;2024-02-28T03:12:50;20.48;;;14.48;;
73113;SDS011;61301;51.956;5.876;2024-02-28T03:15:16;24.15;;;16.92;;
73113;SDS011;61301;51.956;5.876;2024-02-28T03:17:42;20.25;;;14.30;;
73113;SDS011;61301;51.956;5.876;2024-02-28T03:20:08;18.38;;;13.02;;
73113;SDS011;61301;51.956;5.876;2024-02-28T03:22:35;18.23;;;12.43;;
73113;SDS011;61301;51.956;5.876;2024-02-28T03:25:00;20.55;;;14.27;;
73113;SDS011;61301;51.956;5.876;2024-02-28T03:27:27;18.13;;;12.75;;
73113;SDS011;61301;51.956;5.876;2024-02-28T03:29:52;25.65;;;16.63;;
73113;SDS011;61301;51.956;5.876;2024-02-28T03:32:18;27.13;;;19.17;;
73113;SDS011;61301;51.956;5.876;2024-02-28T03:34:44;26.50;;;17.33;;
73113;SDS011;61301;51.956;5.876;2024-02-28T03:37:10;27.20;;;18.70;;
73113;SDS011;61301;51.956;5.876;2024-02-28T03:39:36;28.00;;;18.45;;
73113;SDS011;61301;51.956;5.876;2024-02-28T03:42:02;27.83;;;19.00;;
73113;SDS011;61301;51.956;5.876;2024-02-28T03:44:28;29.98;;;19.08;;
73113;SDS011;61301;51.956;5.876;2024-02-28T03:46:54;24.95;;;18.10;;
73113;SDS011;61301;51.956;5.876;2024-02-28T03:49:20;26.13;;;18.67;;
73113;SDS011;61301;51.956;5.876;2024-02-28T03:51:46;31.50;;;20.25;;
73113;SDS011;61301;51.956;5.876;2024-02-28T03:54:12;30.45;;;20.60;;
73113;SDS011;61301;51.956;5.876;2024-02-28T03:56:38;28.73;;;20.60;;
73113;SDS011;61301;51.956;5.876;2024-02-28T03:59:04;28.90;;;18.88;;
73113;SDS011;61301;51.956;5.876;2024-02-28T04:01:30;29.75;;;17.83;;
73113;SDS011;61301;51.956;5.876;2024-02-28T04:03:56;24.27;;;17.13;;
73113;SDS011;61301;51.956;5.876;2024-02-28T04:06:23;24.88;;;17.17;;
73113;SDS011;61301;51.956;5.876;2024-02-28T04:08:49;21.58;;;15.75;;
73113;SDS011;61301;51.956;5.876;2024-02-28T04:11:15;17.83;;;12.32;;
73113;SDS011;61301;51.956;5.876;2024-02-28T04:13:41;16.98;;;12.73;;
73113;SDS011;61301;51.956;5.876;2024-02-28T04:16:08;22.13;;;16.33;;
73113;SDS011;61301;51.956;5.876;2024-02-28T04:18:35;23.30;;;16.08;;
73113;SDS011;61301;51.956;5.876;2024-02-28T04:21:01;17.13;;;13.18;;
73113;SDS011;61301;51.956;5.876;2024-02-28T04:23:27;24.63;;;17.42;;
73113;SDS011;61301;51.956;5.876;2024-02-28T04:25:54;20.90;;;15.43;;
73113;SDS011;61301;51.956;5.876;2024-02-28T04:28:20;25.02;;;16.92;;
73113;SDS011;61301;51.956;5.876;2024-02-28T04:30:46;23.67;;;17.27;;
73113;SDS011;61301;51.956;5.876;2024-02-28T04:33:12;25.67;;;18.55;;
73113;SDS011;61301;51.956;5.876;2024-02-28T04:35:41;26.13;;;18.00;;
73113;SDS011;61301;51.956;5.876;2024-02-28T04:38:10;25.55;;;19.33;;
73113;SDS011;61301;51.956;5.876;2024-02-28T04:40:36;26.60;;;19.73;;
73113;SDS011;61301;51.956;5.876;2024-02-28T04:43:02;28.45;;;20.40;;
73113;SDS011;61301;51.956;5.876;2024-02-28T04:45:28;27.50;;;20.23;;
73113;SDS011;61301;51.956;5.876;2024-02-28T04:47:54;25.85;;;17.92;;
73113;SDS011;61301;51.956;5.876;2024-02-28T04:50:22;23.40;;;17.83;;
73113;SDS011;61301;51.956;5.876;2024-02-28T04:52:49;24.55;;;17.98;;
73113;SDS011;61301;51.956;5.876;2024-02-28T04:55:15;24.08;;;17.67;;
73113;SDS011;61301;51.956;5.876;2024-02-28T04:57:41;26.58;;;19.02;;
73113;SDS011;61301;51.956;5.876;2024-02-28T05:00:07;23.83;;;17.48;;
73113;SDS011;61301;51.956;5.876;2024-02-28T05:02:36;24.75;;;19.27;;
73113;SDS011;61301;51.956;5.876;2024-02-28T05:05:02;26.13;;;18.05;;
73113;SDS011;61301;51.956;5.876;2024-02-28T05:07:28;26.13;;;18.50;;
73113;SDS011;61301;51.956;5.876;2024-02-28T05:09:54;22.60;;;17.15;;
73113;SDS011;61301;51.956;5.876;2024-02-28T05:12:20;23.02;;;17.08;;
73113;SDS011;61301;51.956;5.876;2024-02-28T05:14:46;22.17;;;15.95;;
73113;SDS011;61301;51.956;5.876;2024-02-28T05:17:12;19.02;;;14.20;;
73113;SDS011;61301;51.956;5.876;2024-02-28T05:19:38;21.15;;;15.38;;
73113;SDS011;61301;51.956;5.876;2024-02-28T05:22:05;23.30;;;17.42;;
73113;SDS011;61301;51.956;5.876;2024-02-28T05:24:31;27.23;;;18.98;;
73113;SDS011;61301;51.956;5.876;2024-02-28T05:26:57;29.83;;;20.70;;
73113;SDS011;61301;51.956;5.876;2024-02-28T05:29:23;28.75;;;18.70;;
73113;SDS011;61301;51.956;5.876;2024-02-28T05:31:48;24.67;;;17.70;;
73113;SDS011;61301;51.956;5.876;2024-02-28T05:34:15;25.10;;;17.40;;
73113;SDS011;61301;51.956;5.876;2024-02-28T05:36:42;23.40;;;14.50;;
73113;SDS011;61301;51.956;5.876;2024-02-28T05:39:08;22.33;;;14.90;;
73113;SDS011;61301;51.956;5.876;2024-02-28T05:41:34;23.70;;;16.02;;
73113;SDS011;61301;51.956;5.876;2024-02-28T05:44:00;25.13;;;17.83;;
73113;SDS011;61301;51.956;5.876;2024-02-28T05:46:26;24.83;;;17.42;;
73113;SDS011;61301;51.956;5.876;2024-02-28T05:48:52;22.80;;;15.75;;
73113;SDS011;61301;51.956;5.876;2024-02-28T05:51:18;17.95;;;12.70;;
73113;SDS011;61301;51.956;5.876;2024-02-28T05:53:44;20.33;;;14.25;;
73113;SDS011;61301;51.956;5.876;2024-02-28T05:56:10;20.77;;;15.05;;
73113;SDS011;61301;51.956;5.876;2024-02-28T05:58:43;26.17;;;16.42;;
73113;SDS011;61301;51.956;5.876;2024-02-28T06:01:10;22.35;;;15.88;;
73113;SDS011;61301;51.956;5.876;2024-02-28T06:03:39;21.10;;;16.77;;
73113;SDS011;61301;51.956;5.876;2024-02-28T06:06:05;21.48;;;16.90;;
73113;SDS011;61301;51.956;5.876;2024-02-28T06:08:37;22.50;;;17.70;;
73113;SDS011;61301;51.956;5.876;2024-02-28T06:11:04;20.67;;;15.02;;
73113;SDS011;61301;51.956;5.876;2024-02-28T06:13:31;21.05;;;16.48;;
73113;SDS011;61301;51.956;5.876;2024-02-28T06:15:57;20.15;;;15.10;;
73113;SDS011;61301;51.956;5.876;2024-02-28T06:18:23;19.02;;;14.88;;
73113;SDS011;61301;51.956;5.876;2024-02-28T06:20:55;17.25;;;13.23;;
73113;SDS011;61301;51.956;5.876;2024-02-28T06:23:22;17.55;;;13.90;;
73113;SDS011;61301;51.956;5.876;2024-02-28T06:25:48;17.77;;;13.40;;
73113;SDS011;61301;51.956;5.876;2024-02-28T06:28:14;20.13;;;14.68;;
73113;SDS011;61301;51.956;5.876;2024-02-28T06:30:42;16.08;;;13.05;;
73113;SDS011;61301;51.956;5.876;2024-02-28T06:33:08;17.73;;;14.90;;
73113;SDS011;61301;51.956;5.876;2024-02-28T06:35:35;17.95;;;12.70;;
73113;SDS011;61301;51.956;5.876;2024-02-28T06:38:01;15.98;;;13.10;;
73113;SDS011;61301;51.956;5.876;2024-02-28T06:40:27;16.80;;;12.80;;
73113;SDS011;61301;51.956;5.876;2024-02-28T06:42:54;15.05;;;12.00;;
73113;SDS011;61301;51.956;5.876;2024-02-28T06:45:23;15.73;;;12.20;;
73113;SDS011;61301;51.956;5.876;2024-02-28T06:47:49;15.15;;;12.50;;
73113;SDS011;61301;51.956;5.876;2024-02-28T06:50:15;14.55;;;11.93;;
73113;SDS011;61301;51.956;5.876;2024-02-28T06:52:41;11.82;;;9.90;;
73113;SDS011;61301;51.956;5.876;2024-02-28T06:55:07;14.73;;;11.48;;
73113;SDS011;61301;51.956;5.876;2024-02-28T06:57:37;15.50;;;12.43;;
73113;SDS011;61301;51.956;5.876;2024-02-28T07:00:05;17.08;;;12.32;;
73113;SDS011;61301;51.956;5.876;2024-02-28T07:02:34;14.93;;;11.60;;
73113;SDS011;61301;51.956;5.876;2024-02-28T07:05:01;16.73;;;13.02;;
73113;SDS011;61301;51.956;5.876;2024-02-28T07:07:28;16.52;;;12.15;;
73113;SDS011;61301;51.956;5.876;2024-02-28T07:09:54;12.82;;;10.43;;
73113;SDS011;61301;51.956;5.876;2024-02-28T07:12:20;14.05;;;11.15;;
73113;SDS011;61301;51.956;5.876;2024-02-28T07:14:46;12.82;;;10.93;;
73113;SDS011;61301;51.956;5.876;2024-02-28T07:17:12;14.02;;;11.23;;
73113;SDS011;61301;51.956;5.876;2024-02-28T07:19:38;19.27;;;14.15;;
73113;SDS011;61301;51.956;5.876;2024-02-28T07:22:04;16.13;;;12.43;;
73113;SDS011;61301;51.956;5.876;2024-02-28T07:24:31;16.40;;;12.18;;
73113;SDS011;61301;51.956;5.876;2024-02-28T07:26:57;16.95;;;13.18;;
73113;SDS011;61301;51.956;5.876;2024-02-28T07:29:23;16.95;;;12.02;;
73113;SDS011;61301;51.956;5.876;2024-02-28T07:31:49;15.70;;;11.65;;
73113;SDS011;61301;51.956;5.876;2024-02-28T07:34:16;16.98;;;13.63;;
73113;SDS011;61301;51.956;5.876;2024-02-28T07:36:42;20.20;;;16.63;;
73113;SDS011;61301;51.956;5.876;2024-02-28T07:39:08;18.63;;;14.32;;
73113;SDS011;61301;51.956;5.876;2024-02-28T07:41:38;19.80;;;15.55;;
73113;SDS011;61301;51.956;5.876;2024-02-28T07:44:05;20.13;;;16.10;;
73113;SDS011;61301;51.956;5.876;2024-02-28T07:46:32;22.42;;;16.40;;
73113;SDS011;61301;51.956;5.876;2024-02-28T07:48:59;26.67;;;17.27;;
73113;SDS011;61301;51.956;5.876;2024-02-28T07:51:26;24.77;;;17.50;;
73113;SDS011;61301;51.956;5.876;2024-02-28T07:53:53;24.00;;;18.15;;
73113;SDS011;61301;51.956;5.876;2024-02-28T07:56:19;26.63;;;18.27;;
73113;SDS011;61301;51.956;5.876;2024-02-28T07:58:46;24.05;;;17.95;;
73113;SDS011;61301;51.956;5.876;2024-02-28T08:01:12;27.20;;;19.63;;
73113;SDS011;61301;51.956;5.876;2024-02-28T08:03:38;31.00;;;20.48;;
73113;SDS011;61301;51.956;5.876;2024-02-28T08:06:05;30.33;;;18.98;;
73113;SDS011;61301;51.956;5.876;2024-02-28T08:08:31;33.20;;;21.00;;
73113;SDS011;61301;51.956;5.876;2024-02-28T08:10:57;38.65;;;23.70;;
73113;SDS011;61301;51.956;5.876;2024-02-28T08:13:23;34.75;;;21.48;;
73113;SDS011;61301;51.956;5.876;2024-02-28T08:15:49;42.13;;;23.95;;
73113;SDS011;61301;51.956;5.876;2024-02-28T08:18:15;38.55;;;24.30;;
73113;SDS011;61301;51.956;5.876;2024-02-28T08:20:41;37.20;;;24.65;;
73113;SDS011;61301;51.956;5.876;2024-02-28T08:23:07;45.22;;;27.13;;
73113;SDS011;61301;51.956;5.876;2024-02-28T08:25:33;41.85;;;24.70;;
73113;SDS011;61301;51.956;5.876;2024-02-28T08:27:59;38.75;;;22.65;;
73113;SDS011;61301;51.956;5.876;2024-02-28T08:30:25;42.08;;;24.77;;
73113;SDS011;61301;51.956;5.876;2024-02-28T08:32:51;37.65;;;25.27;;
73113;SDS011;61301;51.956;5.876;2024-02-28T08:35:18;34.20;;;22.65;;
73113;SDS011;61301;51.956;5.876;2024-02-28T08:37:44;37.13;;;23.85;;
73113;SDS011;61301;51.956;5.876;2024-02-28T08:40:10;43.70;;;25.25;;
73113;SDS011;61301;51.956;5.876;2024-02-28T08:42:37;38.95;;;24.52;;
73113;SDS011;61301;51.956;5.876;2024-02-28T08:45:03;42.35;;;25.70;;
73113;SDS011;61301;51.956;5.876;2024-02-28T08:47:31;41.08;;;24.83;;
73113;SDS011;61301;51.956;5.876;2024-02-28T08:49:57;35.55;;;23.60;;
73113;SDS011;61301;51.956;5.876;2024-02-28T08:52:23;38.45;;;24.85;;
73113;SDS011;61301;51.956;5.876;2024-02-28T08:54:49;40.15;;;23.38;;
73113;SDS011;61301;51.956;5.876;2024-02-28T08:57:15;37.20;;;24.13;;
73113;SDS011;61301;51.956;5.876;2024-02-28T08:59:42;41.30;;;26.33;;
73113;SDS011;61301;51.956;5.876;2024-02-28T09:02:08;31.67;;;20.67;;
73113;SDS011;61301;51.956;5.876;2024-02-28T09:04:35;37.70;;;23.23;;
73113;SDS011;61301;51.956;5.876;2024-02-28T09:07:01;40.38;;;24.67;;
73113;SDS011;61301;51.956;5.876;2024-02-28T09:09:27;39.03;;;24.63;;
73113;SDS011;61301;51.956;5.876;2024-02-28T09:12:00;33.03;;;22.83;;
73113;SDS011;61301;51.956;5.876;2024-02-28T09:14:28;37.38;;;23.73;;
73113;SDS011;61301;51.956;5.876;2024-02-28T09:16:54;36.83;;;24.48;;
73113;SDS011;61301;51.956;5.876;2024-02-28T09:19:27;36.00;;;24.48;;
73113;SDS011;61301;51.956;5.876;2024-02-28T09:21:53;45.10;;;27.08;;
73113;SDS011;61301;51.956;5.876;2024-02-28T09:24:19;35.28;;;23.13;;
73113;SDS011;61301;51.956;5.876;2024-02-28T09:26:45;38.92;;;26.50;;
73113;SDS011;61301;51.956;5.876;2024-02-28T09:29:11;36.95;;;25.10;;
73113;SDS011;61301;51.956;5.876;2024-02-28T09:31:37;35.42;;;23.40;;
73113;SDS011;61301;51.956;5.876;2024-02-28T09:34:03;44.17;;;27.30;;
73113;SDS011;61301;51.956;5.876;2024-02-28T09:36:34;39.38;;;26.10;;
73113;SDS011;61301;51.956;5.876;2024-02-28T09:39:06;37.78;;;26.55;;
73113;SDS011;61301;51.956;5.876;2024-02-28T09:41:32;38.00;;;26.17;;
73113;SDS011;61301;51.956;5.876;2024-02-28T09:43:58;34.35;;;23.58;;
73113;SDS011;61301;51.956;5.876;2024-02-28T09:46:28;32.75;;;20.80;;
73113;SDS011;61301;51.956;5.876;2024-02-28T09:48:54;39.63;;;26.33;;
73113;SDS011;61301;51.956;5.876;2024-02-28T09:51:21;37.83;;;24.05;;
73113;SDS011;61301;51.956;5.876;2024-02-28T09:53:50;38.78;;;26.33;;
73113;SDS011;61301;51.956;5.876;2024-02-28T09:56:16;28.38;;;20.38;;
73113;SDS011;61301;51.956;5.876;2024-02-28T09:58:42;36.28;;;23.10;;
73113;SDS011;61301;51.956;5.876;2024-02-28T10:01:09;38.78;;;26.45;;
73113;SDS011;61301;51.956;5.876;2024-02-28T10:03:37;40.13;;;26.13;;
73113;SDS011;61301;51.956;5.876;2024-02-28T10:06:05;40.88;;;27.38;;
73113;SDS011;61301;51.956;5.876;2024-02-28T10:08:31;39.88;;;25.42;;
73113;SDS011;61301;51.956;5.876;2024-02-28T10:10:58;40.85;;;27.02;;
73113;SDS011;61301;51.956;5.876;2024-02-28T10:13:24;43.65;;;28.63;;
73113;SDS011;61301;51.956;5.876;2024-02-28T10:15:50;39.47;;;26.58;;
73113;SDS011;61301;51.956;5.876;2024-02-28T10:18:16;40.42;;;27.63;;
73113;SDS011;61301;51.956;5.876;2024-02-28T10:20:42;39.53;;;28.90;;
73113;SDS011;61301;51.956;5.876;2024-02-28T10:23:08;42.50;;;29.33;;
73113;SDS011;61301;51.956;5.876;2024-02-28T10:25:47;38.60;;;27.13;;
73113;SDS011;61301;51.956;5.876;2024-02-28T10:28:14;38.83;;;28.95;;
73113;SDS011;61301;51.956;5.876;2024-02-28T10:30:40;38.45;;;27.50;;
73113;SDS011;61301;51.956;5.876;2024-02-28T10:33:13;38.20;;;26.77;;
73113;SDS011;61301;51.956;5.876;2024-02-28T10:35:40;38.60;;;28.63;;
73113;SDS011;61301;51.956;5.876;2024-02-28T10:38:11;37.92;;;28.15;;
73113;SDS011;61301;51.956;5.876;2024-02-28T10:40:39;41.05;;;27.60;;
73113;SDS011;61301;51.956;5.876;2024-02-28T10:43:09;40.55;;;27.48;;
73113;SDS011;61301;51.956;5.876;2024-02-28T10:45:39;39.90;;;26.77;;
73113;SDS011;61301;51.956;5.876;2024-02-28T10:48:05;38.65;;;26.17;;
73113;SDS011;61301;51.956;5.876;2024-02-28T10:50:32;39.95;;;28.88;;
73113;SDS011;61301;51.956;5.876;2024-02-28T10:53:00;40.22;;;28.23;;
73113;SDS011;61301;51.956;5.876;2024-02-28T10:55:32;39.78;;;28.35;;
73113;SDS011;61301;51.956;5.876;2024-02-28T10:58:06;40.05;;;27.95;;
73113;SDS011;61301;51.956;5.876;2024-02-28T11:00:33;39.50;;;28.67;;
73113;SDS011;61301;51.956;5.876;2024-02-28T11:03:01;37.92;;;27.02;;
73113;SDS011;61301;51.956;5.876;2024-02-28T11:05:38;39.75;;;28.90;;
73113;SDS011;61301;51.956;5.876;2024-02-28T11:08:19;40.95;;;29.95;;
73113;SDS011;61301;51.956;5.876;2024-02-28T11:10:53;36.95;;;25.98;;
73113;SDS011;61301;51.956;5.876;2024-02-28T11:13:21;38.15;;;26.50;;
73113;SDS011;61301;51.956;5.876;2024-02-28T11:15:48;38.15;;;26.23;;
73113;SDS011;61301;51.956;5.876;2024-02-28T11:18:14;36.22;;;26.95;;
73113;SDS011;61301;51.956;5.876;2024-02-28T11:20:40;37.72;;;26.58;;
73113;SDS011;61301;51.956;5.876;2024-02-28T11:23:09;36.03;;;25.65;;
73113;SDS011;61301;51.956;5.876;2024-02-28T11:25:35;34.70;;;26.75;;
73113;SDS011;61301;51.956;5.876;2024-02-28T11:28:01;36.38;;;26.77;;
73113;SDS011;61301;51.956;5.876;2024-02-28T11:30:27;34.80;;;26.98;;
73113;SDS011;61301;51.956;5.876;2024-02-28T11:32:54;35.47;;;27.52;;
73113;SDS011;61301;51.956;5.876;2024-02-28T11:35:20;33.10;;;23.77;;
73113;SDS011;61301;51.956;5.876;2024-02-28T11:37:47;31.63;;;24.55;;
73113;SDS011;61301;51.956;5.876;2024-02-28T11:40:13;30.55;;;23.23;;
73113;SDS011;61301;51.956;5.876;2024-02-28T11:42:40;35.47;;;26.65;;
73113;SDS011;61301;51.956;5.876;2024-02-28T11:45:09;36.72;;;25.40;;
73113;SDS011;61301;51.956;5.876;2024-02-28T11:47:36;37.10;;;27.75;;
73113;SDS011;61301;51.956;5.876;2024-02-28T11:50:02;39.65;;;28.95;;
73113;SDS011;61301;51.956;5.876;2024-02-28T11:52:32;33.22;;;24.55;;
73113;SDS011;61301;51.956;5.876;2024-02-28T11:54:59;39.30;;;27.50;;
73113;SDS011;61301;51.956;5.876;2024-02-28T11:57:28;37.60;;;27.63;;
73113;SDS011;61301;51.956;5.876;2024-02-28T11:59:56;39.63;;;29.13;;
73113;SDS011;61301;51.956;5.876;2024-02-28T12:02:22;38.17;;;26.52;;
73113;SDS011;61301;51.956;5.876;2024-02-28T12:04:52;40.47;;;29.85;;
73113;SDS011;61301;51.956;5.876;2024-02-28T12:07:20;38.65;;;27.77;;
73113;SDS011;61301;51.956;5.876;2024-02-28T12:09:46;36.42;;;28.52;;
73113;SDS011;61301;51.956;5.876;2024-02-28T12:12:14;44.25;;;31.40;;
73113;SDS011;61301;51.956;5.876;2024-02-28T12:14:40;36.80;;;26.63;;
73113;SDS011;61301;51.956;5.876;2024-02-28T12:17:10;37.67;;;27.83;;
73113;SDS011;61301;51.956;5.876;2024-02-28T12:19:36;37.67;;;28.17;;
73113;SDS011;61301;51.956;5.876;2024-02-28T12:22:02;35.22;;;25.13;;
73113;SDS011;61301;51.956;5.876;2024-02-28T12:24:29;41.15;;;26.33;;
73113;SDS011;61301;51.956;5.876;2024-02-28T12:27:01;33.25;;;24.13;;
73113;SDS011;61301;51.956;5.876;2024-02-28T12:29:27;30.95;;;22.88;;
73113;SDS011;61301;51.956;5.876;2024-02-28T12:31:53;37.85;;;24.60;;
73113;SDS011;61301;51.956;5.876;2024-02-28T12:34:19;36.15;;;24.77;;
73113;SDS011;61301;51.956;5.876;2024-02-28T12:36:46;30.00;;;23.88;;
73113;SDS011;61301;51.956;5.876;2024-02-28T12:39:12;36.03;;;24.67;;
73113;SDS011;61301;51.956;5.876;2024-02-28T12:41:41;31.17;;;24.10;;
73113;SDS011;61301;51.956;5.876;2024-02-28T12:44:07;36.17;;;25.92;;
73113;SDS011;61301;51.956;5.876;2024-02-28T12:46:34;33.08;;;23.92;;
73113;SDS011;61301;51.956;5.876;2024-02-28T12:49:00;29.75;;;22.83;;
73113;SDS011;61301;51.956;5.876;2024-02-28T12:51:43;30.90;;;22.25;;
73113;SDS011;61301;51.956;5.876;2024-02-28T12:54:11;27.60;;;21.70;;
73113;SDS011;61301;51.956;5.876;2024-02-28T12:56:38;28.70;;;22.40;;
73113;SDS011;61301;51.956;5.876;2024-02-28T12:59:05;29.80;;;21.40;;
73113;SDS011;61301;51.956;5.876;2024-02-28T13:01:34;34.17;;;23.00;;
73113;SDS011;61301;51.956;5.876;2024-02-28T13:04:01;33.35;;;22.10;;
73113;SDS011;61301;51.956;5.876;2024-02-28T13:06:27;30.40;;;22.85;;
73113;SDS011;61301;51.956;5.876;2024-02-28T13:08:53;31.17;;;21.73;;
73113;SDS011;61301;51.956;5.876;2024-02-28T13:11:20;27.35;;;21.60;;
73113;SDS011;61301;51.956;5.876;2024-02-28T13:13:48;30.58;;;21.95;;
73113;SDS011;61301;51.956;5.876;2024-02-28T13:16:15;29.58;;;21.40;;
73113;SDS011;61301;51.956;5.876;2024-02-28T13:18:44;27.55;;;20.63;;
73113;SDS011;61301;51.956;5.876;2024-02-28T13:21:11;29.55;;;21.20;;
73113;SDS011;61301;51.956;5.876;2024-02-28T13:23:38;31.05;;;22.15;;
73113;SDS011;61301;51.956;5.876;2024-02-28T13:26:04;30.00;;;21.48;;
73113;SDS011;61301;51.956;5.876;2024-02-28T13:28:31;31.45;;;21.45;;
73113;SDS011;61301;51.956;5.876;2024-02-28T13:31:00;32.25;;;21.02;;
73113;SDS011;61301;51.956;5.876;2024-02-28T13:33:27;30.52;;;21.98;;
73113;SDS011;61301;51.956;5.876;2024-02-28T13:35:53;29.88;;;21.63;;
73113;SDS011;61301;51.956;5.876;2024-02-28T13:38:20;27.05;;;20.98;;
73113;SDS011;61301;51.956;5.876;2024-02-28T13:40:47;26.38;;;20.00;;
73113;SDS011;61301;51.956;5.876;2024-02-28T13:43:13;26.05;;;20.33;;
73113;SDS011;61301;51.956;5.876;2024-02-28T13:45:40;27.95;;;20.42;;
73113;SDS011;61301;51.956;5.876;2024-02-28T13:48:18;27.70;;;21.55;;
73113;SDS011;61301;51.956;5.876;2024-02-28T13:50:56;26.33;;;19.58;;
73113;SDS011;61301;51.956;5.876;2024-02-28T13:53:23;25.52;;;19.80;;
73113;SDS011;61301;51.956;5.876;2024-02-28T13:55:50;25.98;;;19.25;;
73113;SDS011;61301;51.956;5.876;2024-02-28T13:58:17;28.42;;;19.77;;
73113;SDS011;61301;51.956;5.876;2024-02-28T14:00:44;26.75;;;20.30;;
73113;SDS011;61301;51.956;5.876;2024-02-28T14:03:13;26.52;;;17.08;;
73113;SDS011;61301;51.956;5.876;2024-02-28T14:05:43;24.65;;;19.05;;
73113;SDS011;61301;51.956;5.876;2024-02-28T14:08:11;25.77;;;19.83;;
73113;SDS011;61301;51.956;5.876;2024-02-28T14:10:38;25.85;;;20.88;;
73113;SDS011;61301;51.956;5.876;2024-02-28T14:13:04;27.08;;;20.58;;
73113;SDS011;61301;51.956;5.876;2024-02-28T14:15:30;30.88;;;20.38;;
73113;SDS011;61301;51.956;5.876;2024-02-28T14:17:56;29.40;;;19.10;;
73113;SDS011;61301;51.956;5.876;2024-02-28T14:20:22;28.40;;;21.10;;